createdAt,value
2019-04-06T00:00:36.221Z,33.67
2019-04-06T00:01:12.692Z,33.83
2019-04-06T00:01:48.839Z,33.75
2019-04-06T00:02:25.326Z,33.33
2019-04-06T00:02:58.318Z,33.85
2019-04-06T00:03:31.332Z,34.13
2019-04-06T00:04:04.943Z,34.00
2019-04-06T00:04:37.963Z,33.95
2019-04-06T00:05:12.402Z,34.20
2019-04-06T00:05:45.549Z,33.63
2019-04-06T00:06:18.550Z,34.23
2019-04-06T00:06:51.740Z,33.10
2019-04-06T00:07:24.915Z,34.18
2019-04-06T00:07:57.902Z,34.43
2019-04-06T00:08:30.944Z,33.80
2019-04-06T00:09:05.888Z,34.08
2019-04-06T00:09:38.968Z,34.05
2019-04-06T00:10:12.350Z,34.40
2019-04-06T00:10:45.435Z,33.98
2019-04-06T00:11:18.546Z,34.27
2019-04-06T00:11:51.547Z,34.20
2019-04-06T00:12:24.630Z,34.35
2019-04-06T00:12:58.592Z,34.38
2019-04-06T00:13:31.560Z,34.98
2019-04-06T00:14:04.667Z,34.40
2019-04-06T00:14:37.964Z,34.23
2019-04-06T00:15:11.306Z,34.15
2019-04-06T00:15:44.304Z,33.88
2019-04-06T00:16:17.396Z,34.00
2019-04-06T00:16:50.391Z,34.78
2019-04-06T00:17:23.456Z,34.00
2019-04-06T00:17:56.454Z,34.45
2019-04-06T00:18:29.614Z,34.65
2019-04-06T00:19:03.632Z,34.48
2019-04-06T00:19:36.726Z,34.03
2019-04-06T00:20:09.940Z,34.58
2019-04-06T00:20:43.102Z,33.92
2019-04-06T00:21:16.132Z,34.50
2019-04-06T00:21:49.334Z,34.48
2019-04-06T00:22:22.198Z,34.13
2019-04-06T00:22:55.189Z,34.08
2019-04-06T00:23:28.147Z,34.88
2019-04-06T00:24:02.355Z,35.25
2019-04-06T00:24:35.494Z,35.28
2019-04-06T00:25:08.770Z,33.80
2019-04-06T00:25:44.847Z,34.00
2019-04-06T00:26:16.762Z,34.27
2019-04-06T00:26:49.779Z,34.25
2019-04-06T00:27:24.654Z,35.17
2019-04-06T00:27:57.994Z,34.73
2019-04-06T00:28:31.034Z,35.08
2019-04-06T00:29:04.050Z,34.80
2019-04-06T00:29:37.110Z,34.58
2019-04-06T00:30:10.552Z,34.60
2019-04-06T00:30:58.382Z,34.20
2019-04-06T00:31:48.115Z,34.78
2019-04-06T00:32:35.323Z,34.88
2019-04-06T00:33:10.474Z,34.58
2019-04-06T00:33:43.530Z,35.05
2019-04-06T00:34:16.754Z,34.10
2019-04-06T00:34:49.794Z,34.65
2019-04-06T00:35:22.666Z,34.90
2019-04-06T00:35:55.762Z,35.10
2019-04-06T00:36:29.798Z,35.38
2019-04-06T00:37:02.959Z,35.90
2019-04-06T00:37:36.830Z,34.85
2019-04-06T00:38:09.905Z,35.65
2019-04-06T00:38:42.960Z,34.53
2019-04-06T00:39:15.944Z,34.80
2019-04-06T00:39:49.091Z,34.83
2019-04-06T00:40:22.248Z,35.35
2019-04-06T00:40:55.694Z,34.83
2019-04-06T00:41:28.678Z,35.40
2019-04-06T00:42:01.950Z,34.60
2019-04-06T00:42:35.059Z,34.67
2019-04-06T00:43:08.187Z,35.83
2019-04-06T00:43:41.190Z,35.63
2019-04-06T00:44:16.717Z,34.90
2019-04-06T00:44:49.346Z,35.50
2019-04-06T00:45:22.346Z,35.25
2019-04-06T00:45:55.503Z,34.55
2019-04-06T00:46:28.880Z,34.58
2019-04-06T00:47:02.092Z,34.78
2019-04-06T00:47:35.198Z,35.23
2019-04-06T00:48:08.392Z,35.00
2019-04-06T00:48:41.943Z,35.88
2019-04-06T00:49:15.060Z,35.13
2019-04-06T00:49:48.318Z,35.15
2019-04-06T00:50:21.370Z,35.68
2019-04-06T00:50:54.365Z,35.45
2019-04-06T00:51:27.557Z,35.23
2019-04-06T00:52:00.586Z,36.05
2019-04-06T00:52:35.331Z,35.33
2019-04-06T00:53:08.496Z,35.10
2019-04-06T00:53:41.524Z,35.17
2019-04-06T00:54:16.214Z,35.10
2019-04-06T00:54:51.142Z,35.08
2019-04-06T00:55:25.953Z,34.90
2019-04-06T00:55:58.984Z,34.70
2019-04-06T00:56:32.051Z,35.15
2019-04-06T00:57:05.152Z,35.60
2019-04-06T00:57:38.136Z,35.33
2019-04-06T00:58:11.143Z,35.15
2019-04-06T00:58:44.504Z,36.13
2019-04-06T00:59:17.472Z,35.30
2019-04-06T00:59:50.484Z,35.60
2019-04-06T01:00:23.746Z,35.13
2019-04-06T01:00:56.823Z,36.48
2019-04-06T01:01:32.700Z,35.48
2019-04-06T01:02:06.530Z,35.05
2019-04-06T01:02:39.738Z,34.90
2019-04-06T01:03:12.704Z,35.65
2019-04-06T01:03:45.702Z,36.08
2019-04-06T01:04:18.812Z,35.75
2019-04-06T01:04:52.944Z,35.05
2019-04-06T01:05:26.148Z,34.92
2019-04-06T01:05:59.193Z,35.50
2019-04-06T01:06:32.333Z,35.60
2019-04-06T01:07:05.442Z,35.50
2019-04-06T01:07:38.418Z,35.92
2019-04-06T01:08:12.774Z,35.98
2019-04-06T01:08:45.774Z,36.03
2019-04-06T01:09:18.936Z,35.55
2019-04-06T01:09:52.142Z,35.63
2019-04-06T01:10:25.534Z,36.40
2019-04-06T01:10:58.480Z,35.38
2019-04-06T01:11:31.468Z,35.48
2019-04-06T01:12:04.674Z,35.50
2019-04-06T01:12:37.734Z,35.78
2019-04-06T01:13:10.906Z,36.23
2019-04-06T01:13:43.980Z,35.90
2019-04-06T01:14:17.040Z,35.73
2019-04-06T01:14:50.130Z,36.00
2019-04-06T01:15:23.200Z,36.03
2019-04-06T01:15:56.351Z,35.13
2019-04-06T01:16:31.002Z,34.90
2019-04-06T01:17:04.161Z,35.92
2019-04-06T01:17:37.388Z,35.95
2019-04-06T01:18:10.571Z,36.05
2019-04-06T01:18:43.555Z,35.85
2019-04-06T01:19:16.612Z,36.30
2019-04-06T01:19:51.302Z,36.13
2019-04-06T01:20:24.404Z,36.10
2019-04-06T01:20:57.640Z,35.92
2019-04-06T01:21:31.888Z,35.68
2019-04-06T01:22:04.990Z,34.88
2019-04-06T01:22:38.126Z,36.38
2019-04-06T01:23:11.264Z,36.60
2019-04-06T01:23:45.966Z,35.55
2019-04-06T01:24:19.052Z,36.25
2019-04-06T01:24:52.075Z,35.85
2019-04-06T01:25:25.156Z,36.48
2019-04-06T01:26:07.023Z,36.33
2019-04-06T01:26:33.282Z,36.38
2019-04-06T01:27:06.432Z,36.08
2019-04-06T01:27:39.605Z,36.03
2019-04-06T01:28:12.660Z,35.80
2019-04-06T01:28:45.702Z,36.60
2019-04-06T01:29:18.848Z,36.00
2019-04-06T01:29:51.829Z,35.48
2019-04-06T01:30:26.394Z,36.35
2019-04-06T01:30:59.340Z,36.00
2019-04-06T01:31:32.500Z,35.45
2019-04-06T01:32:05.550Z,36.40
2019-04-06T01:32:38.594Z,36.53
2019-04-06T01:33:11.748Z,36.38
2019-04-06T01:33:44.781Z,36.15
2019-04-06T01:34:17.743Z,36.38
2019-04-06T01:34:50.575Z,35.95
2019-04-06T01:35:23.446Z,36.40
2019-04-06T01:35:56.566Z,36.30
2019-04-06T01:36:29.750Z,37.23
2019-04-06T01:37:02.909Z,35.92
2019-04-06T01:37:35.912Z,36.90
2019-04-06T01:38:08.948Z,35.90
2019-04-06T01:38:42.312Z,36.60
2019-04-06T01:39:15.504Z,36.13
2019-04-06T01:39:48.476Z,36.65
2019-04-06T01:40:21.566Z,35.35
2019-04-06T01:40:54.538Z,35.90
2019-04-06T01:41:27.614Z,36.17
2019-04-06T01:42:00.539Z,36.20
2019-04-06T01:42:33.628Z,35.10
2019-04-06T01:43:06.697Z,36.38
2019-04-06T01:43:40.719Z,35.92
2019-04-06T01:44:13.735Z,36.17
2019-04-06T01:44:46.779Z,37.10
2019-04-06T01:45:19.772Z,36.40
2019-04-06T01:45:52.800Z,36.03
2019-04-06T01:46:25.753Z,37.63
2019-04-06T01:47:00.010Z,36.63
2019-04-06T01:47:33.072Z,36.42
2019-04-06T01:48:06.132Z,37.25
2019-04-06T01:48:39.236Z,36.65
2019-04-06T01:49:12.316Z,36.20
2019-04-06T01:49:45.369Z,36.48
2019-04-06T01:50:18.428Z,36.80
2019-04-06T01:50:51.272Z,36.53
2019-04-06T01:51:24.286Z,37.08
2019-04-06T01:51:57.341Z,36.17
2019-04-06T01:52:30.176Z,36.42
2019-04-06T01:53:03.244Z,37.23
2019-04-06T01:53:36.212Z,37.60
2019-04-06T01:54:09.222Z,37.45
2019-04-06T01:54:42.210Z,37.13
2019-04-06T01:55:15.301Z,35.65
2019-04-06T01:55:48.388Z,37.28
2019-04-06T01:56:21.369Z,37.00
2019-04-06T01:56:54.412Z,36.77
2019-04-06T01:57:27.465Z,36.20
2019-04-06T01:58:00.411Z,36.33
2019-04-06T01:58:33.383Z,36.68
2019-04-06T01:59:06.556Z,37.38
2019-04-06T01:59:39.630Z,37.80
2019-04-06T02:00:13.624Z,37.63
2019-04-06T02:01:04.059Z,37.05
2019-04-06T02:01:54.200Z,36.38
2019-04-06T02:02:29.913Z,36.58
2019-04-06T02:03:02.944Z,36.70
2019-04-06T02:03:36.293Z,37.20
2019-04-06T02:04:09.354Z,36.68
2019-04-06T02:04:42.322Z,36.48
2019-04-06T02:05:15.992Z,37.33
2019-04-06T02:05:49.121Z,36.63
2019-04-06T02:06:22.191Z,37.67
2019-04-06T02:06:55.346Z,37.63
2019-04-06T02:07:28.538Z,37.33
2019-04-06T02:08:01.622Z,37.67
2019-04-06T02:08:34.910Z,37.70
2019-04-06T02:09:09.141Z,36.25
2019-04-06T02:09:42.347Z,37.17
2019-04-06T02:10:15.533Z,37.70
2019-04-06T02:10:50.123Z,37.67
2019-04-06T02:11:24.285Z,37.63
2019-04-06T02:11:57.324Z,37.50
2019-04-06T02:12:30.203Z,36.90
2019-04-06T02:13:03.314Z,36.50
2019-04-06T02:13:36.366Z,36.73
2019-04-06T02:14:09.483Z,37.60
2019-04-06T02:14:42.712Z,37.10
2019-04-06T02:15:15.989Z,37.00
2019-04-06T02:15:49.036Z,37.00
2019-04-06T02:16:22.069Z,37.85
2019-04-06T02:16:55.176Z,37.80
2019-04-06T02:17:28.285Z,37.65
2019-04-06T02:18:01.470Z,37.65
2019-04-06T02:18:34.530Z,37.00
2019-04-06T02:19:07.475Z,37.33
2019-04-06T02:19:40.423Z,37.73
2019-04-06T02:20:13.717Z,36.42
2019-04-06T02:20:46.572Z,36.48
2019-04-06T02:21:19.537Z,37.75
2019-04-06T02:21:52.490Z,36.90
2019-04-06T02:22:25.919Z,37.60
2019-04-06T02:23:00.041Z,36.75
2019-04-06T02:23:33.877Z,37.20
2019-04-06T02:24:07.041Z,37.17
2019-04-06T02:24:40.093Z,37.55
2019-04-06T02:25:13.293Z,36.53
2019-04-06T02:25:46.223Z,38.08
2019-04-06T02:26:29.676Z,37.35
2019-04-06T02:26:54.059Z,37.80
2019-04-06T02:27:28.499Z,37.20
2019-04-06T02:28:01.449Z,37.28
2019-04-06T02:28:34.565Z,37.23
2019-04-06T02:29:07.601Z,38.17
2019-04-06T02:29:41.533Z,37.93
2019-04-06T02:30:39.923Z,38.88
2019-04-06T02:31:18.776Z,37.63
2019-04-06T02:32:06.040Z,37.95
2019-04-06T02:32:51.945Z,38.15
2019-04-06T02:33:31.357Z,38.60
2019-04-06T02:34:13.664Z,38.73
2019-04-06T02:35:15.655Z,38.60
2019-04-06T02:36:11.012Z,38.65
2019-04-06T02:36:51.876Z,38.50
2019-04-06T02:37:32.300Z,38.40
2019-04-06T02:38:28.709Z,38.73
2019-04-06T02:39:27.267Z,37.88
2019-04-06T02:40:16.048Z,39.10
2019-04-06T02:41:01.284Z,38.53
2019-04-06T02:41:45.842Z,39.08
2019-04-06T02:42:23.535Z,38.23
2019-04-06T02:43:03.872Z,38.53
2019-04-06T02:43:37.277Z,38.42
2019-04-06T02:44:10.280Z,38.08
2019-04-06T02:44:43.260Z,38.90
2019-04-06T02:45:16.401Z,39.30
2019-04-06T02:45:49.478Z,38.85
2019-04-06T02:46:22.461Z,38.40
2019-04-06T02:46:55.497Z,37.48
2019-04-06T02:47:28.453Z,38.63
2019-04-06T02:48:01.582Z,40.08
2019-04-06T02:48:34.779Z,39.73
2019-04-06T02:49:08.060Z,39.05
2019-04-06T02:49:41.191Z,39.60
2019-04-06T02:50:14.419Z,39.10
2019-04-06T02:50:47.470Z,38.20
2019-04-06T02:51:22.234Z,39.60
2019-04-06T02:51:55.292Z,39.53
2019-04-06T02:52:28.225Z,39.60
2019-04-06T02:53:01.295Z,39.18
2019-04-06T02:53:34.355Z,39.70
2019-04-06T02:54:07.630Z,39.35
2019-04-06T02:54:40.787Z,38.98
2019-04-06T02:55:14.198Z,39.05
2019-04-06T02:55:47.244Z,40.40
2019-04-06T02:56:20.282Z,39.30
2019-04-06T02:56:53.281Z,39.45
2019-04-06T02:57:26.372Z,39.50
2019-04-06T02:57:59.299Z,39.03
2019-04-06T02:58:32.441Z,39.38
2019-04-06T02:59:05.634Z,39.70
2019-04-06T02:59:38.749Z,39.65
2019-04-06T03:00:11.925Z,39.83
2019-04-06T03:00:44.965Z,39.78
2019-04-06T03:01:18.101Z,38.63
2019-04-06T03:01:51.184Z,39.98
2019-04-06T03:02:24.226Z,40.65
2019-04-06T03:02:57.411Z,39.25
2019-04-06T03:03:30.463Z,40.70
2019-04-06T03:04:03.521Z,39.92
2019-04-06T03:04:36.560Z,40.03
2019-04-06T03:05:09.899Z,39.63
2019-04-06T03:05:43.005Z,40.33
2019-04-06T03:06:16.127Z,39.45
2019-04-06T03:06:49.175Z,40.48
2019-04-06T03:07:22.226Z,40.28
2019-04-06T03:07:55.276Z,40.83
2019-04-06T03:08:28.383Z,40.28
2019-04-06T03:09:01.470Z,39.70
2019-04-06T03:09:35.796Z,39.42
2019-04-06T03:10:09.163Z,40.75
2019-04-06T03:10:42.254Z,39.88
2019-04-06T03:11:15.247Z,39.70
2019-04-06T03:11:48.330Z,40.28
2019-04-06T03:12:21.414Z,40.63
2019-04-06T03:12:54.717Z,40.03
2019-04-06T03:13:27.798Z,40.08
2019-04-06T03:14:01.090Z,40.85
2019-04-06T03:14:34.213Z,40.98
2019-04-06T03:15:07.597Z,39.40
2019-04-06T03:15:40.447Z,40.48
2019-04-06T03:16:13.490Z,40.83
2019-04-06T03:16:46.350Z,39.85
2019-04-06T03:17:19.351Z,41.20
2019-04-06T03:17:52.410Z,40.60
2019-04-06T03:18:25.475Z,40.92
2019-04-06T03:18:58.487Z,39.10
2019-04-06T03:19:31.410Z,41.05
2019-04-06T03:20:04.662Z,40.00
2019-04-06T03:20:37.704Z,39.98
2019-04-06T03:21:11.329Z,39.67
2019-04-06T03:21:44.239Z,41.53
2019-04-06T03:22:17.293Z,39.78
2019-04-06T03:22:50.237Z,40.80
2019-04-06T03:23:24.865Z,40.58
2019-04-06T03:23:58.166Z,40.55
2019-04-06T03:24:31.231Z,39.53
2019-04-06T03:25:05.653Z,40.52
2019-04-06T03:25:38.859Z,41.73
2019-04-06T03:26:12.295Z,40.63
2019-04-06T03:26:59.432Z,41.20
2019-04-06T03:27:21.988Z,40.98
2019-04-06T03:27:55.094Z,41.55
2019-04-06T03:28:28.656Z,40.28
2019-04-06T03:29:01.940Z,40.48
2019-04-06T03:29:34.915Z,39.95
2019-04-06T03:30:08.625Z,40.83
2019-04-06T03:30:41.713Z,40.50
2019-04-06T03:31:14.855Z,38.75
2019-04-06T03:31:49.196Z,40.78
2019-04-06T03:32:22.747Z,41.25
2019-04-06T03:32:55.833Z,41.88
2019-04-06T03:33:29.068Z,41.20
2019-04-06T03:34:02.253Z,41.10
2019-04-06T03:34:35.311Z,38.23
2019-04-06T03:35:09.452Z,40.65
2019-04-06T03:35:46.768Z,40.75
2019-04-06T03:36:17.448Z,39.85
2019-04-06T03:36:50.665Z,37.73
2019-04-06T03:37:23.736Z,38.58
2019-04-06T03:37:58.250Z,39.35
2019-04-06T03:38:31.526Z,39.63
2019-04-06T03:39:06.406Z,40.75
2019-04-06T03:39:39.613Z,39.40
2019-04-06T03:40:13.202Z,39.45
2019-04-06T03:40:46.176Z,39.95
2019-04-06T03:41:19.249Z,39.25
2019-04-06T03:41:53.956Z,38.42
2019-04-06T03:42:27.066Z,38.85
2019-04-06T03:43:01.753Z,38.42
2019-04-06T03:43:34.811Z,39.13
2019-04-06T03:44:07.899Z,40.38
2019-04-06T03:44:41.196Z,40.40
2019-04-06T03:45:14.541Z,39.78
2019-04-06T03:45:47.640Z,39.63
2019-04-06T03:46:20.755Z,40.60
2019-04-06T03:46:53.839Z,40.33
2019-04-06T03:47:26.907Z,40.23
2019-04-06T03:47:59.810Z,37.50
2019-04-06T03:48:32.897Z,39.78
2019-04-06T03:49:05.972Z,40.00
2019-04-06T03:49:38.954Z,38.95
2019-04-06T03:50:12.049Z,39.85
2019-04-06T03:50:45.050Z,40.75
2019-04-06T03:51:18.061Z,39.35
2019-04-06T03:51:51.139Z,39.60
2019-04-06T03:52:24.101Z,39.20
2019-04-06T03:52:57.288Z,39.73
2019-04-06T03:53:30.310Z,39.73
2019-04-06T03:54:03.353Z,39.75
2019-04-06T03:54:36.304Z,40.40
2019-04-06T03:55:09.187Z,39.98
2019-04-06T03:55:42.099Z,39.40
2019-04-06T03:56:15.099Z,40.03
2019-04-06T03:56:47.962Z,40.45
2019-04-06T03:57:21.046Z,40.33
2019-04-06T03:57:54.121Z,39.67
2019-04-06T03:58:27.160Z,39.35
2019-04-06T03:59:00.223Z,39.83
2019-04-06T03:59:33.094Z,40.23
2019-04-06T04:00:07.515Z,38.92
2019-04-06T04:00:40.352Z,40.10
2019-04-06T04:01:13.352Z,39.83
2019-04-06T04:01:46.449Z,40.12
2019-04-06T04:02:19.424Z,39.18
2019-04-06T04:02:52.586Z,39.90
2019-04-06T04:03:25.920Z,39.48
2019-04-06T04:03:59.117Z,39.60
2019-04-06T04:04:32.211Z,40.25
2019-04-06T04:05:06.328Z,40.00
2019-04-06T04:05:39.354Z,40.17
2019-04-06T04:06:12.660Z,40.50
2019-04-06T04:06:45.862Z,39.98
2019-04-06T04:07:19.164Z,40.17
2019-04-06T04:07:52.006Z,39.00
2019-04-06T04:08:24.928Z,37.75
2019-04-06T04:08:57.879Z,40.52
2019-04-06T04:09:31.930Z,41.35
2019-04-06T04:10:06.043Z,40.98
2019-04-06T04:10:41.136Z,41.13
2019-04-06T04:11:14.248Z,41.37
2019-04-06T04:11:47.223Z,41.28
2019-04-06T04:12:20.082Z,40.48
2019-04-06T04:12:52.949Z,40.33
2019-04-06T04:13:25.924Z,40.85
2019-04-06T04:13:58.850Z,40.90
2019-04-06T04:14:31.888Z,41.58
2019-04-06T04:15:05.926Z,40.48
2019-04-06T04:15:39.227Z,40.43
2019-04-06T04:16:12.342Z,41.35
2019-04-06T04:16:45.550Z,39.88
2019-04-06T04:17:18.645Z,41.23
2019-04-06T04:17:51.591Z,38.53
2019-04-06T04:18:24.843Z,39.15
2019-04-06T04:18:57.799Z,38.13
2019-04-06T04:19:32.408Z,39.88
2019-04-06T04:20:05.788Z,39.40
2019-04-06T04:20:38.779Z,40.55
2019-04-06T04:21:12.709Z,39.63
2019-04-06T04:21:45.795Z,40.20
2019-04-06T04:22:18.855Z,41.00
2019-04-06T04:22:51.873Z,39.85
2019-04-06T04:23:24.732Z,40.03
2019-04-06T04:23:57.714Z,40.80
2019-04-06T04:24:30.854Z,40.15
2019-04-06T04:25:04.499Z,39.30
2019-04-06T04:25:37.440Z,40.52
2019-04-06T04:26:10.875Z,40.55
2019-04-06T04:26:43.880Z,38.90
2019-04-06T04:27:27.638Z,40.67
2019-04-06T04:27:51.781Z,40.23
2019-04-06T04:28:24.663Z,41.02
2019-04-06T04:28:57.619Z,40.55
2019-04-06T04:29:30.535Z,40.83
2019-04-06T04:30:04.137Z,37.70
2019-04-06T04:30:36.935Z,40.33
2019-04-06T04:31:11.188Z,40.45
2019-04-06T04:31:45.856Z,40.50
2019-04-06T04:32:18.825Z,39.80
2019-04-06T04:32:51.765Z,39.18
2019-04-06T04:33:24.769Z,39.42
2019-04-06T04:33:57.655Z,39.53
2019-04-06T04:34:30.743Z,40.73
2019-04-06T04:35:04.250Z,39.92
2019-04-06T04:35:37.319Z,40.80
2019-04-06T04:36:10.479Z,40.43
2019-04-06T04:36:43.435Z,39.85
2019-04-06T04:37:16.624Z,40.28
2019-04-06T04:37:49.657Z,41.58
2019-04-06T04:38:22.709Z,42.13
2019-04-06T04:38:55.868Z,39.05
2019-04-06T04:39:28.850Z,40.52
2019-04-06T04:40:01.996Z,41.40
2019-04-06T04:40:35.092Z,40.40
2019-04-06T04:41:08.090Z,41.77
2019-04-06T04:41:41.068Z,41.73
2019-04-06T04:42:14.060Z,42.17
2019-04-06T04:42:47.046Z,42.03
2019-04-06T04:43:20.238Z,42.03
2019-04-06T04:43:53.323Z,42.67
2019-04-06T04:44:26.287Z,41.20
2019-04-06T04:44:59.278Z,42.73
2019-04-06T04:45:32.356Z,41.28
2019-04-06T04:46:05.492Z,40.78
2019-04-06T04:46:39.617Z,42.50
2019-04-06T04:47:12.790Z,41.95
2019-04-06T04:47:46.055Z,42.13
2019-04-06T04:48:19.295Z,43.75
2019-04-06T04:48:52.456Z,44.20
2019-04-06T04:49:26.520Z,41.30
2019-04-06T04:49:59.710Z,43.35
2019-04-06T04:50:32.986Z,44.30
2019-04-06T04:51:05.962Z,43.28
2019-04-06T04:51:38.982Z,43.68
2019-04-06T04:52:11.983Z,43.20
2019-04-06T04:52:45.112Z,43.73
2019-04-06T04:53:19.953Z,45.23
2019-04-06T04:53:53.016Z,43.83
2019-04-06T04:54:26.108Z,44.15
2019-04-06T04:54:59.206Z,46.45
2019-04-06T04:55:32.369Z,43.95
2019-04-06T04:56:05.412Z,44.90
2019-04-06T04:56:38.354Z,47.50
2019-04-06T04:57:11.365Z,43.35
2019-04-06T04:57:45.377Z,43.38
2019-04-06T04:58:18.976Z,46.50
2019-04-06T04:58:51.834Z,43.25
2019-04-06T04:59:24.989Z,45.73
2019-04-06T04:59:58.006Z,46.00
2019-04-06T05:00:32.364Z,44.53
2019-04-06T05:01:05.364Z,43.70
2019-04-06T05:01:38.410Z,44.23
2019-04-06T05:02:11.236Z,42.93
2019-04-06T05:02:44.249Z,43.63
2019-04-06T05:03:17.276Z,44.23
2019-04-06T05:03:51.013Z,43.92
2019-04-06T05:04:23.922Z,43.92
2019-04-06T05:04:57.071Z,47.98
2019-04-06T05:05:30.288Z,45.95
2019-04-06T05:06:04.444Z,45.35
2019-04-06T05:06:37.436Z,45.10
2019-04-06T05:07:10.564Z,45.58
2019-04-06T05:07:43.474Z,46.83
2019-04-06T05:08:16.448Z,44.42
2019-04-06T05:08:49.572Z,47.33
2019-04-06T05:09:22.518Z,43.45
2019-04-06T05:09:55.620Z,47.27
2019-04-06T05:10:28.667Z,49.85
2019-04-06T05:11:01.579Z,46.53
2019-04-06T05:11:36.159Z,47.40
2019-04-06T05:12:09.163Z,45.78
2019-04-06T05:12:42.197Z,48.90
2019-04-06T05:13:15.221Z,49.90
2019-04-06T05:13:48.140Z,50.17
2019-04-06T05:14:56.826Z,50.33
2019-04-06T05:16:12.515Z,50.95
2019-04-06T05:16:45.511Z,48.33
2019-04-06T05:17:18.562Z,47.23
2019-04-06T05:17:51.619Z,51.35
2019-04-06T05:18:26.218Z,49.30
2019-04-06T05:18:59.231Z,51.90
2019-04-06T05:19:32.257Z,51.63
2019-04-06T05:20:07.648Z,52.17
2019-04-06T05:20:40.578Z,51.80
2019-04-06T05:21:13.854Z,52.27
2019-04-06T05:21:46.903Z,50.45
2019-04-06T05:22:19.922Z,50.58
2019-04-06T05:22:53.055Z,53.63
2019-04-06T05:23:26.029Z,54.45
2019-04-06T05:23:59.193Z,54.58
2019-04-06T05:24:32.244Z,53.80
2019-04-06T05:25:09.133Z,53.50
2019-04-06T05:25:42.137Z,53.38
2019-04-06T05:26:15.093Z,55.03
2019-04-06T05:26:48.241Z,54.27
2019-04-06T05:27:21.561Z,53.35
2019-04-06T05:27:54.498Z,53.70
2019-04-06T05:28:28.976Z,53.70
2019-04-06T05:29:01.884Z,56.63
2019-04-06T05:29:35.019Z,51.63
2019-04-06T05:30:08.764Z,49.83
2019-04-06T05:30:41.822Z,52.35
2019-04-06T05:31:14.746Z,52.80
2019-04-06T05:31:47.605Z,44.03
2019-04-06T05:32:20.766Z,50.90
2019-04-06T05:32:54.906Z,55.03
2019-04-06T05:33:28.032Z,53.55
2019-04-06T05:34:01.092Z,56.98
2019-04-06T05:34:34.014Z,51.15
2019-04-06T05:35:06.946Z,52.73
2019-04-06T05:35:39.872Z,52.30
2019-04-06T05:36:14.452Z,51.37
2019-04-06T05:36:47.358Z,55.83
2019-04-06T05:37:20.563Z,53.25
2019-04-06T05:37:53.563Z,58.02
2019-04-06T05:38:28.160Z,54.95
2019-04-06T05:39:01.071Z,51.00
2019-04-06T05:39:34.119Z,51.23
2019-04-06T05:40:07.256Z,50.10
2019-04-06T05:40:41.812Z,56.55
2019-04-06T05:41:14.637Z,61.77
2019-04-06T05:41:50.357Z,52.50
2019-04-06T05:42:23.066Z,52.78
2019-04-06T05:42:56.203Z,56.58
2019-04-06T05:43:29.097Z,55.58
2019-04-06T05:44:02.133Z,58.70
2019-04-06T05:44:35.296Z,55.35
2019-04-06T05:45:08.728Z,55.58
2019-04-06T05:45:41.624Z,58.17
2019-04-06T05:46:14.712Z,57.17
2019-04-06T05:46:47.714Z,56.88
2019-04-06T05:47:20.812Z,55.38
2019-04-06T05:47:53.850Z,53.58
2019-04-06T05:48:26.996Z,58.52
2019-04-06T05:49:00.016Z,56.88
2019-04-06T05:49:33.070Z,54.67
2019-04-06T05:50:06.639Z,53.85
2019-04-06T05:50:39.698Z,53.98
2019-04-06T05:51:12.715Z,57.10
2019-04-06T05:51:45.674Z,53.98
2019-04-06T05:52:18.602Z,57.85
2019-04-06T05:52:51.654Z,57.05
2019-04-06T05:53:24.718Z,56.15
2019-04-06T05:53:57.774Z,50.50
2019-04-06T05:54:30.888Z,60.83
2019-04-06T05:55:04.520Z,57.40
2019-04-06T05:55:37.638Z,53.68
2019-04-06T05:56:10.636Z,52.85
2019-04-06T05:56:43.709Z,56.75
2019-04-06T05:57:17.715Z,59.50
2019-04-06T05:57:57.747Z,54.60
2019-04-06T05:58:25.556Z,53.38
2019-04-06T05:58:58.536Z,58.85
2019-04-06T05:59:31.756Z,58.42
2019-04-06T06:00:09.727Z,59.27
2019-04-06T06:00:41.561Z,57.88
2019-04-06T06:01:14.464Z,56.20
2019-04-06T06:01:48.937Z,57.38
2019-04-06T06:02:22.420Z,54.98
2019-04-06T06:02:55.457Z,56.05
2019-04-06T06:03:29.265Z,59.30
2019-04-06T06:04:02.212Z,54.90
2019-04-06T06:04:35.285Z,54.77
2019-04-06T06:05:08.559Z,59.53
2019-04-06T06:05:43.460Z,58.73
2019-04-06T06:06:18.155Z,58.87
2019-04-06T06:06:51.307Z,56.88
2019-04-06T06:07:24.413Z,54.20
2019-04-06T06:07:57.536Z,62.97
2019-04-06T06:08:30.641Z,58.13
2019-04-06T06:09:05.841Z,56.88
2019-04-06T06:09:39.274Z,59.65
2019-04-06T06:10:12.380Z,58.50
2019-04-06T06:10:45.360Z,61.20
2019-04-06T06:11:18.274Z,57.17
2019-04-06T06:11:51.386Z,56.25
2019-04-06T06:12:24.693Z,54.20
2019-04-06T06:12:58.102Z,54.98
2019-04-06T06:13:33.409Z,57.40
2019-04-06T06:14:06.635Z,59.10
2019-04-06T06:14:39.754Z,58.35
2019-04-06T06:15:13.206Z,45.05
2019-04-06T06:15:46.286Z,54.73
2019-04-06T06:16:19.811Z,58.13
2019-04-06T06:16:52.827Z,55.45
2019-04-06T06:17:25.928Z,56.85
2019-04-06T06:17:59.102Z,54.00
2019-04-06T06:18:33.854Z,56.15
2019-04-06T06:19:06.879Z,58.48
2019-04-06T06:19:40.044Z,53.60
2019-04-06T06:20:13.186Z,57.95
2019-04-06T06:20:48.242Z,58.37
2019-04-06T06:21:21.140Z,59.65
2019-04-06T06:21:54.051Z,60.05
2019-04-06T06:22:27.991Z,57.60
2019-04-06T06:23:01.762Z,56.73
2019-04-06T06:23:34.557Z,51.23
2019-04-06T06:24:07.671Z,57.80
2019-04-06T06:24:40.692Z,53.60
2019-04-06T06:25:14.133Z,54.55
2019-04-06T06:25:47.052Z,59.33
2019-04-06T06:26:20.327Z,59.20
2019-04-06T06:26:53.541Z,52.88
2019-04-06T06:27:27.307Z,49.85
2019-04-06T06:28:00.435Z,54.13
2019-04-06T06:28:34.882Z,60.88
2019-04-06T06:29:07.876Z,60.15
2019-04-06T06:29:40.892Z,58.65
2019-04-06T06:30:14.704Z,58.65
2019-04-06T06:30:48.003Z,59.18
2019-04-06T06:31:21.030Z,57.93
2019-04-06T06:31:55.102Z,59.75
2019-04-06T06:32:28.172Z,59.03
2019-04-06T06:33:01.339Z,58.05
2019-04-06T06:33:35.177Z,57.78
2019-04-06T06:34:08.396Z,56.25
2019-04-06T06:34:41.642Z,56.77
2019-04-06T06:35:14.713Z,55.48
2019-04-06T06:35:47.650Z,59.48
2019-04-06T06:36:21.127Z,58.30
2019-04-06T06:36:54.186Z,56.83
2019-04-06T06:37:27.350Z,65.80
2019-04-06T06:38:02.083Z,59.13
2019-04-06T06:38:35.278Z,56.68
2019-04-06T06:39:09.711Z,59.55
2019-04-06T06:39:42.589Z,56.70
2019-04-06T06:40:15.736Z,59.88
2019-04-06T06:40:48.710Z,56.58
2019-04-06T06:41:22.004Z,59.13
2019-04-06T06:41:54.909Z,58.25
2019-04-06T06:42:27.978Z,60.40
2019-04-06T06:43:01.054Z,58.50
2019-04-06T06:43:34.308Z,58.48
2019-04-06T06:44:07.300Z,59.48
2019-04-06T06:44:40.412Z,60.10
2019-04-06T06:45:13.638Z,56.05
2019-04-06T06:45:47.441Z,54.75
2019-04-06T06:46:20.511Z,56.08
2019-04-06T06:46:53.662Z,61.05
2019-04-06T06:47:26.842Z,61.02
2019-04-06T06:48:01.122Z,61.02
2019-04-06T06:48:35.322Z,63.42
2019-04-06T06:49:08.411Z,58.78
2019-04-06T06:49:41.506Z,56.92
2019-04-06T06:50:16.471Z,55.58
2019-04-06T06:50:49.587Z,62.48
2019-04-06T06:51:22.610Z,60.35
2019-04-06T06:51:55.974Z,55.58
2019-04-06T06:52:29.201Z,57.13
2019-04-06T06:53:02.427Z,63.17
2019-04-06T06:53:35.597Z,59.13
2019-04-06T06:54:08.780Z,60.05
2019-04-06T06:54:41.931Z,63.52
2019-04-06T06:55:15.156Z,63.23
2019-04-06T06:55:48.323Z,63.73
2019-04-06T06:56:21.446Z,59.53
2019-04-06T06:56:54.501Z,59.50
2019-04-06T06:57:27.567Z,57.78
2019-04-06T06:58:00.662Z,57.58
2019-04-06T06:58:33.765Z,59.60
2019-04-06T06:59:06.755Z,61.28
2019-04-06T06:59:39.992Z,57.85
2019-04-06T07:00:13.475Z,53.80
2019-04-06T07:00:46.663Z,60.95
2019-04-06T07:01:19.816Z,60.80
2019-04-06T07:01:52.869Z,61.40
2019-04-06T07:02:26.175Z,59.75
2019-04-06T07:02:59.260Z,55.08
2019-04-06T07:03:32.369Z,59.90
2019-04-06T07:04:05.808Z,58.52
2019-04-06T07:04:38.792Z,57.48
2019-04-06T07:05:11.855Z,57.17
2019-04-06T07:05:45.223Z,54.48
2019-04-06T07:06:18.331Z,58.73
2019-04-06T07:06:51.758Z,60.70
2019-04-06T07:07:24.991Z,62.15
2019-04-06T07:07:58.172Z,62.05
2019-04-06T07:08:31.231Z,59.23
2019-04-06T07:09:06.654Z,58.38
2019-04-06T07:09:39.907Z,63.42
2019-04-06T07:10:13.620Z,62.78
2019-04-06T07:10:46.711Z,62.70
2019-04-06T07:11:19.921Z,58.85
2019-04-06T07:11:52.967Z,62.48
2019-04-06T07:12:26.130Z,59.88
2019-04-06T07:12:59.094Z,63.70
2019-04-06T07:13:32.083Z,63.52
2019-04-06T07:14:05.221Z,62.50
2019-04-06T07:14:38.269Z,63.98
2019-04-06T07:15:11.636Z,61.10
2019-04-06T07:15:44.748Z,67.08